Time;durP1;ratioP1;P1;durP2;ratioP2;P2;SDS_P1;SDS_P2;PMS_P1;PMS_P2;Temp;Humidity;BMP_temperature;BMP_pressure;BME280_temperature;BME280_humidity;BME280_pressure;Samples;Min_cycle;Max_cycle;Signal;HPM_P1;HPM_P2
2022/02/21 00:00:10;;;;;;;;;;;;;;;;;;;;;
2022/02/21 00:02:43;;;;;;;2.20;0.83;;;10.10;99.90;;;;;;6244547;22;20142;-85
2022/02/21 00:05:26;;;;;;;;;;;;;;;;;;;;;
2022/02/21 00:07:57;;;;;;;1.13;0.60;;;10.10;99.90;;;;;;6248786;22;20432;-84
2022/02/21 00:10:23;;;;;;;1.97;0.80;;;10.20;99.90;;;;;;6224654;22;20381;-84
2022/02/21 00:12:52;;;;;;;2.13;0.87;;;10.20;99.90;;;;;;6248841;22;20794;-84
2022/02/21 00:15:23;;;;;;;5.83;0.90;;;10.10;99.90;;;;;;6249464;22;20381;-84
2022/02/21 00:17:52;;;;;;;1.23;0.57;;;10.20;99.90;;;;;;6252278;22;20396;-84
2022/02/21 00:20:21;;;;;;;1.77;0.80;;;10.10;99.90;;;;;;6223325;22;20503;-84
2022/02/21 00:22:49;;;;;;;1.13;0.80;;;10.20;99.90;;;;;;6253699;22;20404;-84
2022/02/21 00:25:41;;;;;;;1.27;0.50;;;10.20;99.90;;;;;;6252026;22;20365;-84
2022/02/21 00:28:06;;;;;;;2.00;0.50;;;10.20;99.90;;;;;;6249857;22;20437;-84
2022/02/21 00:30:37;;;;;;;0.73;0.50;;;10.30;99.90;;;;;;6224785;22;20413;-84
2022/02/21 00:33:28;;;;;;;;;;;;;;;;;;;;;
2022/02/21 00:36:10;;;;;;;1.17;0.60;;;10.30;99.90;;;;;;6251826;22;20733;-85
2022/02/21 00:42:10;;;;;;;1.70;0.70;;;10.30;99.90;;;;;;6228073;22;20766;-85
2022/02/21 00:44:39;;;;;;;2.10;1.20;;;10.40;99.90;;;;;;6227989;22;21102;-84
2022/02/21 00:47:13;;;;;;;1.90;0.70;;;10.40;99.90;;;;;;6223822;22;20744;-84
2022/02/21 00:49:41;;;;;;;1.10;0.60;;;10.30;99.90;;;;;;6224917;22;20385;-84
2022/02/21 00:52:12;;;;;;;0.67;0.40;;;10.30;99.90;;;;;;6223990;22;20393;-84
2022/02/21 00:54:38;;;;;;;0.80;0.80;;;10.40;99.90;;;;;;6225394;22;20816;-83
2022/02/21 00:57:07;;;;;;;1.57;0.50;;;10.30;99.90;;;;;;6224672;22;21211;-83
2022/02/21 00:59:35;;;;;;;3.43;0.90;;;10.30;99.90;;;;;;6252428;22;20351;-83
2022/02/21 01:02:03;;;;;;;1.40;0.87;;;10.30;99.90;;;;;;6222796;22;20396;-83
2022/02/21 01:04:31;;;;;;;5.23;0.90;;;10.30;99.90;;;;;;6227263;22;20419;-84
2022/02/21 01:07:13;;;;;;;2.10;0.67;;;10.30;99.90;;;;;;6249764;22;20432;-84
2022/02/21 01:09:42;;;;;;;3.03;1.10;;;10.20;99.90;;;;;;6228470;22;20909;-83
2022/02/21 01:12:15;;;;;;;1.27;0.60;;;10.10;99.90;;;;;;6250898;22;20384;-84
2022/02/21 01:14:53;;;;;;;;;;;;;;;;;;;;;
2022/02/21 01:17:29;;;;;;;1.33;1.03;;;9.70;99.90;;;;;;6252476;22;20361;-84
2022/02/21 01:20:04;;;;;;;4.40;1.07;;;9.70;99.90;;;;;;6226513;22;20686;-84
2022/02/21 01:22:33;;;;;;;1.50;0.63;;;9.70;99.90;;;;;;6222604;23;20927;-84
2022/02/21 01:24:59;;;;;;;1.93;0.80;;;9.80;99.90;;;;;;6226748;22;20366;-83
2022/02/21 01:27:35;;;;;;;2.00;0.70;;;9.70;99.90;;;;;;6223532;23;20661;-83
2022/02/21 01:30:03;;;;;;;1.97;0.87;;;9.70;99.90;;;;;;6224573;23;20387;-83
2022/02/21 01:32:45;;;;;;;1.00;0.67;;;9.70;99.90;;;;;;6220068;23;20855;-84
2022/02/21 01:35:13;;;;;;;0.77;0.60;;;9.70;99.90;;;;;;6219601;23;20378;-84
2022/02/21 01:37:39;;;;;;;4.47;1.10;;;9.70;99.90;;;;;;6221256;22;20414;-84
2022/02/21 01:40:13;;;;;;;2.67;1.07;;;9.70;99.90;;;;;;6218910;23;20927;-85
2022/02/21 01:43:11;;;;;;;;;;;;;;;;;;;;;
2022/02/21 01:45:38;;;;;;;1.87;0.70;;;9.70;99.90;;;;;;6221581;23;20141;-84
2022/02/21 01:48:16;;;;;;;;;;;;;;;;;;;;;
2022/02/21 01:50:47;;;;;;;2.60;0.90;;;9.60;99.90;;;;;;6211847;22;20763;-85
2022/02/21 01:53:14;;;;;;;3.93;0.83;;;9.70;99.90;;;;;;6218393;23;20835;-85
2022/02/21 01:55:40;;;;;;;2.13;0.90;;;9.70;99.90;;;;;;6218807;23;20945;-85
2022/02/21 01:58:06;;;;;;;5.13;0.80;;;9.60;99.90;;;;;;6218109;23;20378;-85
2022/02/21 02:00:32;;;;;;;0.67;0.67;;;9.60;99.90;;;;;;6220095;22;20390;-85
2022/02/21 02:02:59;;;;;;;1.00;0.60;;;9.80;99.90;;;;;;6217749;23;20382;-85
2022/02/21 02:05:26;;;;;;;2.27;0.70;;;9.80;99.90;;;;;;6219887;22;20154;-84
2022/02/21 02:07:53;;;;;;;1.33;1.00;;;9.80;99.90;;;;;;6218408;22;20429;-84
2022/02/21 02:10:22;;;;;;;1.60;0.77;;;9.80;99.90;;;;;;6219316;22;20362;-84
2022/02/21 02:12:58;;;;;;;2.43;0.57;;;9.80;99.90;;;;;;6220761;22;20374;-85
2022/02/21 02:15:25;;;;;;;3.80;0.90;;;9.80;99.90;;;;;;6219895;22;20358;-84
2022/02/21 02:17:51;;;;;;;0.87;0.50;;;9.70;99.90;;;;;;6219587;23;20382;-84
2022/02/21 02:20:18;;;;;;;1.27;0.50;;;9.70;99.90;;;;;;6219303;23;20760;-85
2022/02/21 02:22:45;;;;;;;0.40;0.40;;;9.80;99.90;;;;;;6217919;23;20357;-84
2022/02/21 02:25:11;;;;;;;0.53;0.40;;;9.80;99.90;;;;;;6221584;22;20577;-84
2022/02/21 02:27:37;;;;;;;0.37;0.37;;;9.80;99.90;;;;;;6219504;23;20971;-84
2022/02/21 02:30:14;;;;;;;1.50;0.53;;;9.80;99.90;;;;;;6221793;22;20373;-84
2022/02/21 02:32:49;;;;;;;0.73;0.50;;;9.80;99.90;;;;;;6218857;23;20154;-84
2022/02/21 02:35:27;;;;;;;;;;;;;;;;;;;;;
2022/02/21 02:38:09;;;;;;;1.90;0.50;;;9.80;99.90;;;;;;6220511;23;20671;-84
2022/02/21 02:41:01;;;;;;;0.90;0.60;;;9.80;99.90;;;;;;6221206;22;20384;-84
2022/02/21 02:43:42;;;;;;;;;;;;;;;;;;;;;
2022/02/21 02:46:11;;;;;;;1.10;0.40;;;9.80;99.90;;;;;;6221597;23;20846;-85
2022/02/21 02:48:39;;;;;;;1.17;0.70;;;9.90;99.90;;;;;;6222942;22;20439;-85
2022/02/21 02:51:10;;;;;;;0.40;0.37;;;9.90;99.90;;;;;;6220943;23;20467;-85
2022/02/21 02:53:50;;;;;;;1.83;0.40;;;9.90;99.90;;;;;;6224376;23;20586;-85
2022/02/21 02:56:18;;;;;;;1.83;0.40;;;9.90;99.90;;;;;;6223672;23;20435;-84
2022/02/21 02:58:46;;;;;;;0.57;0.50;;;9.90;99.90;;;;;;6224894;23;20381;-84
2022/02/21 03:01:12;;;;;;;0.70;0.37;;;9.90;99.90;;;;;;6222600;22;20373;-84
2022/02/21 03:03:55;;;;;;;0.73;0.40;;;9.90;99.90;;;;;;6221491;23;20698;-85
2022/02/21 03:06:22;;;;;;;0.60;0.60;;;9.90;99.90;;;;;;6220224;23;20170;-84
2022/02/21 03:11:29;;;;;;;0.33;0.33;;;10.00;99.90;;;;;;6221808;22;20381;-85
2022/02/21 03:14:12;;;;;;;0.40;0.30;;;9.90;99.90;;;;;;6227969;22;20377;-86
2022/02/21 03:16:50;;;;;;;0.80;0.40;;;9.90;99.90;;;;;;6221761;23;20378;-86
2022/02/21 03:19:25;;;;;;;1.23;0.47;;;9.90;99.90;;;;;;6234791;22;20432;-86
2022/02/21 03:21:53;;;;;;;1.27;0.40;;;9.90;99.90;;;;;;6249523;22;20392;-85
2022/02/21 03:24:19;;;;;;;0.30;0.30;;;9.80;99.90;;;;;;6259516;22;20527;-85
2022/02/21 03:26:45;;;;;;;0.83;0.40;;;9.90;99.90;;;;;;6225153;22;20540;-85
2022/02/21 03:29:18;;;;;;;0.70;0.40;;;9.90;99.90;;;;;;6252956;22;20196;-85
2022/02/21 03:31:44;;;;;;;1.53;0.33;;;9.90;99.90;;;;;;6225924;22;20174;-85
2022/02/21 03:34:12;;;;;;;0.67;0.60;;;9.80;99.90;;;;;;6250052;22;20872;-86
2022/02/21 03:36:49;;;;;;;1.17;0.50;;;9.90;99.90;;;;;;6254045;22;20538;-86
2022/02/21 03:39:19;;;;;;;1.30;0.47;;;9.80;99.90;;;;;;6225204;22;20385;-85
2022/02/21 03:41:45;;;;;;;0.50;0.30;;;9.90;99.90;;;;;;6253009;22;20951;-85
2022/02/21 03:44:11;;;;;;;0.37;0.37;;;10.00;99.90;;;;;;6224406;22;20475;-86
2022/02/21 03:46:41;;;;;;;0.97;0.47;;;10.00;99.90;;;;;;6223073;22;20968;-85
2022/02/21 03:49:07;;;;;;;0.30;0.20;;;9.90;99.90;;;;;;6226856;22;20208;-85
2022/02/21 03:51:33;;;;;;;1.33;1.23;;;9.60;99.90;;;;;;6252902;22;20388;-85
2022/02/21 03:54:01;;;;;;;2.30;0.40;;;9.30;99.90;;;;;;6250453;22;20376;-84
2022/02/21 03:56:27;;;;;;;4.67;1.00;;;9.00;99.90;;;;;;6222801;22;20234;-85
2022/02/21 03:58:55;;;;;;;0.40;0.20;;;8.70;99.90;;;;;;6224274;22;20873;-85
2022/02/21 04:01:21;;;;;;;0.70;0.67;;;8.60;99.90;;;;;;6251007;22;20200;-86
2022/02/21 04:04:01;;;;;;;1.27;0.53;;;8.40;99.90;;;;;;6252658;22;20373;-87
2022/02/21 04:06:27;;;;;;;1.13;0.30;;;7.40;99.90;;;;;;6252956;22;20224;-86
2022/02/21 04:08:57;;;;;;;0.40;0.40;;;5.90;99.90;;;;;;6254667;22;20530;-86
2022/02/21 04:11:33;;;;;;;0.93;0.37;;;5.40;99.90;;;;;;6251286;22;20330;-86
2022/02/21 04:14:04;;;;;;;0.33;0.20;;;5.30;99.90;;;;;;6251791;22;20766;-86
2022/02/21 04:16:34;;;;;;;0.30;0.20;;;5.10;99.90;;;;;;6256445;22;20392;-86
2022/02/21 04:19:12;;;;;;;0.67;0.30;;;4.90;99.90;;;;;;6231284;22;20875;-86
2022/02/21 04:21:38;;;;;;;0.50;0.37;;;4.70;99.90;;;;;;6259578;22;20393;-85
2022/02/21 04:24:08;;;;;;;0.30;0.20;;;4.50;99.90;;;;;;6230571;22;20475;-86
2022/02/21 04:26:42;;;;;;;0.23;0.20;;;4.30;99.90;;;;;;6231142;22;20392;-86
2022/02/21 04:29:28;;;;;;;0.30;0.30;;;4.10;99.90;;;;;;6254910;22;20384;-86
2022/02/21 04:32:07;;;;;;;;;;;;;;;;;;;;;
2022/02/21 04:35:12;;;;;;;;;;;;;;;;;;;;;
2022/02/21 04:38:14;;;;;;;0.30;0.30;;;3.60;99.90;;;;;;6249251;22;20716;-86
2022/02/21 04:40:56;;;;;;;1.47;0.50;;;3.60;99.90;;;;;;6225733;22;20393;-85
2022/02/21 04:44:02;;;;;;;1.87;0.50;;;3.50;99.90;;;;;;6255484;22;20411;-86
2022/02/21 04:50:06;;;;;;;;;;;;;;;;;;;;;
2022/02/21 04:52:42;;;;;;;;;;;;;;;;;;;;;
2022/02/21 04:55:11;;;;;;;3.17;0.60;;;3.50;99.90;;;;;;6253366;22;20367;-86
2022/02/21 04:57:38;;;;;;;0.77;0.60;;;3.50;99.90;;;;;;6251810;22;20457;-85
2022/02/21 05:00:06;;;;;;;1.63;0.60;;;3.60;99.90;;;;;;6223199;22;20401;-85
2022/02/21 05:02:45;;;;;;;1.00;0.63;;;3.60;99.90;;;;;;6227705;22;20387;-85
2022/02/21 05:05:13;;;;;;;1.53;0.83;;;3.60;99.90;;;;;;6251691;22;20882;-85
2022/02/21 05:07:43;;;;;;;1.97;0.50;;;3.60;99.90;;;;;;6227383;22;20818;-85
2022/02/21 05:10:13;;;;;;;1.47;0.53;;;3.60;99.90;;;;;;6249882;22;20376;-85
2022/02/21 05:12:43;;;;;;;3.17;1.20;;;3.60;99.90;;;;;;6254391;22;20392;-86
2022/02/21 05:15:10;;;;;;;3.00;0.67;;;3.70;99.90;;;;;;6224371;22;20551;-86
2022/02/21 05:17:36;;;;;;;2.97;0.67;;;3.60;99.90;;;;;;6226771;22;20393;-85
2022/02/21 05:20:05;;;;;;;3.23;1.30;;;3.70;99.90;;;;;;6250248;22;20369;-86
2022/02/21 05:22:31;;;;;;;0.77;0.60;;;3.60;99.90;;;;;;6255296;22;20377;-85
2022/02/21 05:25:00;;;;;;;0.77;0.60;;;3.60;99.90;;;;;;6254727;22;20521;-85
2022/02/21 05:27:28;;;;;;;1.60;0.70;;;3.60;99.90;;;;;;6223887;22;20766;-86
2022/02/21 05:29:55;;;;;;;1.30;0.60;;;3.60;99.90;;;;;;6222523;22;20758;-85
2022/02/21 05:32:50;;;;;;;4.47;0.70;;;3.60;99.90;;;;;;6230189;22;20776;-87
2022/02/21 05:35:45;;;;;;;;;;;;;;;;;;;;;
2022/02/21 05:38:37;;;;;;;0.87;0.70;;;3.60;99.90;;;;;;6251711;22;20386;-85
2022/02/21 05:41:08;;;;;;;2.70;1.00;;;3.60;99.90;;;;;;6213755;22;20383;-87
2022/02/21 05:44:15;;;;;;;1.70;0.73;;;3.60;99.90;;;;;;6252813;22;20749;-88
2022/02/21 05:46:43;;;;;;;2.23;1.50;;;3.70;99.90;;;;;;6251971;22;20654;-86
2022/02/21 05:49:15;;;;;;;1.37;0.77;;;3.70;99.90;;;;;;6252470;22;20787;-88
2022/02/21 05:51:55;;;;;;;1.20;0.70;;;3.60;99.90;;;;;;6225480;22;20756;-88
2022/02/21 05:54:36;;;;;;;1.00;0.40;;;3.60;99.90;;;;;;6226134;22;20381;-89
2022/02/21 05:57:55;;;;;;;1.17;0.80;;;3.60;99.90;;;;;;6226339;22;20755;-88
2022/02/21 06:00:39;;;;;;;;;;;;;;;;;;;;;
2022/02/21 06:03:08;;;;;;;14.87;12.97;;;3.60;99.90;;;;;;6254905;22;20386;-87
2022/02/21 06:05:43;;;;;;;2.80;0.90;;;3.70;99.90;;;;;;6225797;22;20395;-87
2022/02/21 06:08:22;;;;;;;0.73;0.67;;;3.70;99.90;;;;;;6231058;22;21079;-88
2022/02/21 06:10:59;;;;;;;;;;;;;;;;;;;;;
2022/02/21 06:13:27;;;;;;;2.83;0.90;;;3.70;99.90;;;;;;6257234;22;20359;-88
2022/02/21 06:16:05;;;;;;;3.00;1.10;;;3.70;99.90;;;;;;6253986;22;20364;-91
2022/02/21 06:18:40;;;;;;;2.50;0.70;;;3.70;99.90;;;;;;6229817;22;20377;-89
2022/02/21 06:21:15;;;;;;;2.73;1.10;;;3.70;99.90;;;;;;6258173;22;20451;-89
2022/02/21 06:24:01;;;;;;;3.47;1.40;;;3.80;99.90;;;;;;6227081;22;20387;-87
2022/02/21 06:29:20;;;;;;;2.17;0.87;;;3.70;99.90;;;;;;6245117;22;20393;-87
2022/02/21 06:31:58;;;;;;;6.23;1.03;;;3.70;99.90;;;;;;6253427;22;20922;-88
2022/02/21 06:34:24;;;;;;;4.27;0.90;;;3.80;99.90;;;;;;6251127;22;20451;-87
2022/02/21 06:36:55;;;;;;;5.07;1.10;;;3.70;99.90;;;;;;6250174;22;20389;-87
2022/02/21 06:39:21;;;;;;;3.70;1.07;;;3.80;99.90;;;;;;6253157;22;20166;-87
2022/02/21 06:42:03;;;;;;;;;;;;;;;;;;;;;
2022/02/21 06:44:29;;;;;;;1.70;0.90;;;3.90;99.90;;;;;;6251366;22;20379;-86
2022/02/21 06:46:54;;;;;;;4.00;1.53;;;3.90;99.90;;;;;;6249793;22;20384;-85
2022/02/21 06:49:20;;;;;;;3.03;1.10;;;3.90;99.90;;;;;;6225464;22;20176;-86
2022/02/21 06:51:46;;;;;;;2.10;0.93;;;4.00;99.90;;;;;;6250569;22;20596;-84
2022/02/21 06:57:29;;;;;;;2.63;1.10;;;4.00;99.90;;;;;;6226570;22;20158;-86
2022/02/21 07:02:47;;;;;;;4.00;1.70;;;4.20;99.90;;;;;;6174585;22;20155;-84
2022/02/21 07:05:36;;;;;;;4.97;1.23;;;4.40;99.90;;;;;;6224774;22;20415;-84
2022/02/21 07:08:05;;;;;;;7.30;1.50;;;4.40;99.90;;;;;;6249095;22;21192;-84
2022/02/21 07:10:38;;;;;;;3.50;1.23;;;4.50;99.90;;;;;;6222871;22;20381;-85
2022/02/21 07:13:40;;;;;;;;;;;;;;;;;;;;;
2022/02/21 07:16:09;;;;;;;2.33;1.07;;;4.60;99.90;;;;;;6257000;22;20769;-84
2022/02/21 07:18:37;;;;;;;1.13;1.00;;;4.60;99.90;;;;;;6256297;22;20480;-83
2022/02/21 07:21:12;;;;;;;4.90;1.20;;;4.60;99.90;;;;;;6228422;22;20424;-84
2022/02/21 07:23:53;;;;;;;;;;;;;;;;;;;;;
2022/02/21 07:26:20;;;;;;;3.10;1.33;;;4.70;99.90;;;;;;6255679;22;20355;-83
2022/02/21 07:28:49;;;;;;;2.60;1.10;;;4.70;99.90;;;;;;6255631;22;20433;-84
2022/02/21 07:31:14;;;;;;;2.20;1.20;;;4.80;99.90;;;;;;6229276;22;20727;-85
2022/02/21 07:33:43;;;;;;;5.70;1.50;;;4.80;99.90;;;;;;6230373;22;20396;-85
2022/02/21 07:36:16;;;;;;;5.60;1.20;;;4.80;99.90;;;;;;6257260;22;20151;-84
2022/02/21 07:39:01;;;;;;;;;;;;;;;;;;;;;
2022/02/21 07:41:29;;;;;;;3.37;0.90;;;4.90;99.90;;;;;;6257340;22;20374;-83
2022/02/21 07:44:03;;;;;;;8.03;1.67;;;4.90;99.90;;;;;;6229992;22;20531;-84
2022/02/21 07:46:28;;;;;;;4.90;1.03;;;4.90;99.90;;;;;;6257124;22;20485;-84
2022/02/21 07:48:59;;;;;;;10.20;2.27;;;4.90;99.90;;;;;;6257686;22;20520;-85
2022/02/21 07:51:36;;;;;;;3.80;1.73;;;5.00;99.90;;;;;;6258182;22;20135;-85
2022/02/21 07:54:24;;;;;;;7.93;1.90;;;5.10;99.90;;;;;;6230948;22;20400;-84
2022/02/21 07:57:09;;;;;;;5.30;1.53;;;5.10;99.90;;;;;;6235589;22;20389;-86
2022/02/21 07:59:43;;;;;;;3.30;1.20;;;5.20;99.90;;;;;;6268738;22;20372;-85
2022/02/21 08:02:08;;;;;;;3.27;2.03;;;5.30;99.90;;;;;;6241816;22;20735;-86
2022/02/21 08:04:38;;;;;;;8.73;1.47;;;5.40;99.90;;;;;;6239812;22;20412;-85
2022/02/21 08:07:04;;;;;;;7.57;1.87;;;5.30;99.90;;;;;;6257753;22;20167;-85
2022/02/21 08:09:30;;;;;;;4.87;1.80;;;5.40;99.90;;;;;;6257863;22;20768;-85
2022/02/21 08:11:55;;;;;;;6.83;1.60;;;5.50;99.90;;;;;;6227102;22;20492;-86
2022/02/21 08:14:31;;;;;;;7.20;1.67;;;5.60;99.90;;;;;;6251509;22;20374;-86
2022/02/21 08:19:50;;;;;;;8.30;2.20;;;5.70;99.90;;;;;;6197150;22;20395;-86
2022/02/21 08:22:24;;;;;;;11.17;2.13;;;5.80;99.90;;;;;;6253350;22;20468;-84
2022/02/21 08:24:49;;;;;;;6.93;1.70;;;5.80;99.90;;;;;;6249597;22;20368;-85
2022/02/21 08:27:29;;;;;;;6.00;1.20;;;5.80;99.90;;;;;;6223805;22;20500;-85
2022/02/21 08:29:58;;;;;;;7.33;1.00;;;5.70;99.90;;;;;;6221032;22;20194;-85
2022/02/21 08:32:27;;;;;;;5.83;1.40;;;5.60;99.90;;;;;;6224047;22;20381;-84
2022/02/21 08:35:44;;;;;;;7.17;2.13;;;5.70;99.90;;;;;;6249980;22;20392;-84
2022/02/21 08:38:50;;;;;;;9.60;2.00;;;6.00;99.90;;;;;;6223729;22;20472;-84
2022/02/21 08:41:18;;;;;;;5.80;1.27;;;6.10;99.90;;;;;;6250935;22;20379;-84
2022/02/21 08:43:46;;;;;;;6.33;1.50;;;6.20;99.90;;;;;;6248173;22;20379;-84
2022/02/21 08:46:44;;;;;;;7.13;1.80;;;6.40;99.90;;;;;;6221810;22;20420;-85
2022/02/21 08:49:14;;;;;;;6.07;1.40;;;6.40;99.90;;;;;;6249684;22;20942;-85
2022/02/21 08:51:43;;;;;;;7.80;1.30;;;6.50;99.90;;;;;;6223932;22;20435;-85
2022/02/21 08:54:19;;;;;;;;;;;;;;;;;;;;;
2022/02/21 08:56:50;;;;;;;6.40;3.27;;;6.80;99.90;;;;;;6248015;22;20834;-86
2022/02/21 08:59:25;;;;;;;5.27;1.67;;;6.50;99.90;;;;;;6223117;22;20390;-85
2022/02/21 09:01:50;;;;;;;5.20;1.70;;;6.30;99.90;;;;;;6250233;22;20381;-84
2022/02/21 09:04:24;;;;;;;2.83;1.27;;;6.10;99.90;;;;;;6223183;22;20880;-84
2022/02/21 09:06:50;;;;;;;7.53;2.20;;;5.90;99.90;;;;;;6247892;22;20639;-84
2022/02/21 09:09:25;;;;;;;6.53;1.80;;;5.80;99.90;;;;;;6250989;22;20477;-85
2022/02/21 09:11:51;;;;;;;2.90;1.30;;;5.80;99.90;;;;;;6247180;22;20363;-84
2022/02/21 09:14:17;;;;;;;6.77;1.60;;;5.90;99.90;;;;;;6251340;22;20376;-85
2022/02/21 09:16:43;;;;;;;3.07;1.30;;;6.20;99.90;;;;;;6255264;22;20162;-85
2022/02/21 09:19:12;;;;;;;9.27;1.63;;;6.40;99.90;;;;;;6227375;22;20387;-87
2022/02/21 09:21:51;;;;;;;7.80;1.50;;;6.20;99.90;;;;;;6246722;22;20594;-85
2022/02/21 09:24:16;;;;;;;7.13;2.30;;;6.30;99.90;;;;;;6225780;22;20396;-84
2022/02/21 09:26:46;;;;;;;6.70;2.37;;;6.40;99.90;;;;;;6221735;22;20448;-84
2022/02/21 09:29:14;;;;;;;8.00;1.43;;;6.40;99.90;;;;;;6223581;22;20513;-84
2022/02/21 09:31:42;;;;;;;2.97;0.97;;;6.40;99.90;;;;;;6219612;22;20956;-83
2022/02/21 09:34:08;;;;;;;2.53;1.33;;;6.50;99.90;;;;;;6247967;22;20476;-84
2022/02/21 09:36:43;;;;;;;3.60;1.13;;;6.70;99.90;;;;;;6248690;22;20795;-85
2022/02/21 09:41:57;;;;;;;5.77;1.60;;;6.80;99.90;;;;;;6225964;22;20389;-84
2022/02/21 09:44:25;;;;;;;2.77;0.93;;;6.70;99.90;;;;;;6250101;22;20380;-85
2022/02/21 09:47:12;;;;;;;9.17;1.67;;;6.60;99.90;;;;;;6215515;22;20640;-85
2022/02/21 09:49:38;;;;;;;8.50;1.77;;;6.60;99.90;;;;;;6218362;22;20838;-86
2022/02/21 09:52:04;;;;;;;6.23;1.70;;;6.70;99.90;;;;;;6220538;22;20427;-86
2022/02/21 09:54:32;;;;;;;8.40;2.00;;;6.70;99.90;;;;;;6251257;22;20146;-88
2022/02/21 09:56:58;;;;;;;4.83;2.57;;;6.50;99.90;;;;;;6247461;22;20485;-85
2022/02/21 09:59:26;;;;;;;6.07;1.20;;;6.40;99.90;;;;;;6249500;22;20382;-88
2022/02/21 10:01:57;;;;;;;5.20;1.70;;;6.30;99.90;;;;;;6249763;22;20678;-87
2022/02/21 10:04:36;;;;;;;;;;;;;;;;;;;;;
2022/02/21 10:07:02;;;;;;;5.53;1.20;;;6.20;99.90;;;;;;6249617;22;20401;-86
2022/02/21 10:09:28;;;;;;;5.50;1.27;;;6.10;99.90;;;;;;6250256;22;20915;-86
2022/02/21 10:12:04;;;;;;;3.40;1.50;;;6.00;99.90;;;;;;6249860;22;20565;-85
2022/02/21 10:14:39;;;;;;;5.53;1.30;;;6.20;99.90;;;;;;6246185;22;20167;-87
2022/02/21 10:17:09;;;;;;;2.93;1.40;;;6.50;99.90;;;;;;6247170;22;20360;-86
2022/02/21 10:19:38;;;;;;;5.17;1.10;;;6.90;99.90;;;;;;6219333;22;20948;-84
2022/02/21 10:22:11;;;;;;;8.07;2.07;;;7.20;99.30;;;;;;6213945;23;20409;-85
2022/02/21 10:24:44;;;;;;;18.77;14.20;;;7.10;98.60;;;;;;6222485;22;20368;-85
2022/02/21 10:27:10;;;;;;;4.10;1.20;;;7.40;97.80;;;;;;6221299;22;20410;-89
2022/02/21 10:29:49;;;;;;;5.33;1.43;;;7.70;98.10;;;;;;6222008;23;20963;-88
2022/02/21 10:32:18;;;;;;;4.10;1.13;;;8.10;97.40;;;;;;6222752;22;20154;-88
2022/02/21 10:34:50;;;;;;;3.83;0.90;;;8.40;97.40;;;;;;6223779;22;20393;-88
2022/02/21 10:37:40;;;;;;;4.03;1.60;;;8.20;95.80;;;;;;6219306;23;21157;-88
2022/02/21 10:40:13;;;;;;;3.57;1.63;;;8.00;93.80;;;;;;6222533;22;20457;-87
2022/02/21 10:42:40;;;;;;;6.30;1.70;;;8.00;93.80;;;;;;6223658;22;20370;-87
2022/02/21 10:45:22;;;;;;;3.60;1.37;;;7.70;93.30;;;;;;6217640;22;20725;-88
2022/02/21 10:48:03;;;;;;;3.33;1.43;;;7.40;93.80;;;;;;6219056;23;20452;-87
2022/02/21 10:50:54;;;;;;;4.40;1.33;;;7.70;93.60;;;;;;6220287;22;20583;-88
2022/02/21 10:53:24;;;;;;;3.20;1.33;;;7.90;93.10;;;;;;6219874;23;20390;-89
2022/02/21 10:55:56;;;;;;;4.93;0.83;;;8.10;93.60;;;;;;6222536;22;20760;-87
2022/02/21 10:58:28;;;;;;;5.90;1.17;;;8.50;93.80;;;;;;6215440;23;20452;-88
2022/02/21 11:00:56;;;;;;;3.00;1.37;;;8.70;92.10;;;;;;6218329;23;20419;-88
2022/02/21 11:03:25;;;;;;;3.87;0.87;;;8.60;91.00;;;;;;6220885;23;20390;-89
2022/02/21 11:05:52;;;;;;;2.90;1.00;;;8.70;91.90;;;;;;6218730;23;20450;-88
2022/02/21 11:08:20;;;;;;;1.87;1.00;;;8.50;91.50;;;;;;6221887;22;20429;-88
2022/02/21 11:11:04;;;;;;;4.97;1.37;;;8.00;90.90;;;;;;6221420;22;21122;-88
2022/02/21 11:13:35;;;;;;;3.20;1.17;;;8.50;91.40;;;;;;6225007;22;20376;-87
2022/02/21 11:16:02;;;;;;;2.93;1.00;;;8.90;91.40;;;;;;6221430;22;20453;-87
2022/02/21 11:18:28;;;;;;;5.07;1.50;;;8.80;90.50;;;;;;6221577;23;20908;-87
2022/02/21 11:20:57;;;;;;;4.33;1.53;;;8.90;91.10;;;;;;6220267;22;20402;-89
2022/02/21 11:23:27;;;;;;;3.07;1.17;;;8.70;91.00;;;;;;6219196;22;20389;-91
2022/02/21 11:26:00;;;;;;;6.97;1.50;;;8.00;90.80;;;;;;6254638;22;20416;-90
2022/02/21 11:28:48;;;;;;;4.37;1.10;;;8.20;92.20;;;;;;6253641;22;20464;-86
2022/02/21 11:31:29;;;;;;;5.90;1.20;;;8.60;93.10;;;;;;6219219;22;20381;-87
2022/02/21 11:34:05;;;;;;;4.23;1.67;;;8.50;92.90;;;;;;6249359;22;20379;-85
2022/02/21 11:36:32;;;;;;;2.70;1.30;;;8.20;92.90;;;;;;6243505;22;20365;-86
2022/02/21 11:39:17;;;;;;;5.57;1.20;;;8.00;93.60;;;;;;6250022;22;20377;-87
2022/02/21 11:41:43;;;;;;;5.67;1.40;;;7.80;93.60;;;;;;6246667;22;20377;-83
2022/02/21 11:44:24;;;;;;;5.37;1.30;;;7.90;93.80;;;;;;6253115;22;20396;-88
2022/02/21 11:47:06;;;;;;;3.57;1.00;;;8.00;93.70;;;;;;6217587;22;20150;-91
2022/02/21 11:49:55;;;;;;;4.37;1.23;;;8.00;91.90;;;;;;6228544;22;20408;-88
2022/02/21 11:52:38;;;;;;;4.77;1.23;;;8.10;92.60;;;;;;6258056;22;20372;-89
2022/02/21 11:55:38;;;;;;;7.47;1.10;;;8.40;93.10;;;;;;6222159;22;20647;-89
2022/02/21 11:58:20;;;;;;;4.10;0.93;;;8.50;92.20;;;;;;6245899;22;20546;-89
2022/02/21 12:00:49;;;;;;;5.03;1.37;;;8.30;90.00;;;;;;6220152;22;21225;-87
2022/02/21 12:03:18;;;;;;;3.57;1.37;;;8.30;90.50;;;;;;6220361;22;20476;-90
2022/02/21 12:05:48;;;;;;;8.00;1.30;;;8.40;90.30;;;;;;6218136;22;20386;-89
2022/02/21 12:08:32;;;;;;;4.43;1.60;;;8.50;90.50;;;;;;6247566;22;20483;-89
2022/02/21 12:11:17;;;;;;;2.43;0.87;;;8.40;89.40;;;;;;6248392;22;20386;-89
2022/02/21 12:13:51;;;;;;;3.03;1.50;;;8.60;89.80;;;;;;6253547;22;20547;-89
2022/02/21 12:16:53;;;;;;;3.83;1.07;;;8.70;90.80;;;;;;6245741;22;20446;-89
2022/02/21 12:19:57;;;;;;;1.80;0.93;;;8.70;90.60;;;;;;6219574;22;20846;-89
2022/02/21 12:23:05;;;;;;;2.53;0.93;;;8.60;88.90;;;;;;6217331;23;20413;-93
2022/02/21 12:26:00;;;;;;;5.23;1.20;;;8.30;89.30;;;;;;6218243;23;20391;-91
2022/02/21 12:28:29;;;;;;;2.60;0.90;;;8.40;90.00;;;;;;6217518;23;21011;-89
2022/02/21 12:33:45;;;;;;;2.30;0.80;;;8.40;89.60;;;;;;6204874;22;20393;-88
2022/02/21 12:36:11;;;;;;;5.87;1.50;;;8.30;89.60;;;;;;6218356;23;20809;-85
2022/02/21 12:38:58;;;;;;;4.23;1.50;;;8.10;90.60;;;;;;6211144;23;20394;-88
2022/02/21 12:41:31;;;;;;;1.20;0.90;;;8.00;90.80;;;;;;6212889;23;20476;-86
2022/02/21 12:44:00;;;;;;;4.53;1.00;;;8.10;90.80;;;;;;6215394;22;20896;-86
2022/02/21 12:46:29;;;;;;;4.67;1.00;;;8.00;91.30;;;;;;6216628;22;20552;-85
2022/02/21 12:48:56;;;;;;;3.20;1.30;;;7.90;90.90;;;;;;6216154;23;20447;-88
2022/02/21 12:51:32;;;;;;;3.53;1.07;;;7.90;91.60;;;;;;6215665;22;20443;-89
2022/02/21 12:54:08;;;;;;;2.70;1.63;;;7.80;92.20;;;;;;6216643;22;20410;-88
2022/02/21 12:56:54;;;;;;;2.30;1.20;;;7.60;92.70;;;;;;6216334;22;20699;-88
2022/02/21 12:59:24;;;;;;;4.50;1.07;;;7.50;92.80;;;;;;6217060;22;20370;-88
2022/02/21 13:01:57;;;;;;;5.00;1.63;;;7.40;93.20;;;;;;6214045;22;20858;-86
2022/02/21 13:04:27;;;;;;;1.90;1.03;;;7.40;93.30;;;;;;6211739;23;20539;-86
2022/02/21 13:06:52;;;;;;;5.13;1.70;;;7.40;93.40;;;;;;6213573;22;20426;-87
2022/02/21 13:09:25;;;;;;;1.83;0.77;;;7.40;93.40;;;;;;6220343;23;21080;-88
2022/02/21 13:11:54;;;;;;;2.03;1.10;;;7.50;92.80;;;;;;6218355;23;20155;-87
2022/02/21 13:14:25;;;;;;;1.63;0.87;;;7.50;93.10;;;;;;6220659;22;20654;-86
2022/02/21 13:17:06;;;;;;;1.63;0.60;;;7.50;93.60;;;;;;6223736;23;20505;-87
2022/02/21 13:19:45;;;;;;;3.27;0.97;;;7.20;94.60;;;;;;6220683;23;20894;-85
2022/02/21 13:22:44;;;;;;;2.37;1.27;;;7.20;95.90;;;;;;6245346;22;20402;-89
2022/02/21 13:25:21;;;;;;;4.27;1.30;;;7.30;96.80;;;;;;6239777;22;20883;-88
2022/02/21 13:28:22;;;;;;;2.63;0.97;;;7.50;96.00;;;;;;6229992;22;21104;-88
2022/02/21 13:31:00;;;;;;;4.17;1.10;;;7.70;94.30;;;;;;6235839;22;20381;-88
2022/02/21 13:33:26;;;;;;;1.03;0.93;;;7.70;94.10;;;;;;6264212;22;20911;-87
2022/02/21 13:36:03;;;;;;;2.97;1.10;;;7.80;93.00;;;;;;6229620;22;20461;-87
2022/02/21 13:38:48;;;;;;;;;;;;;;;;;;;;;
2022/02/21 13:41:14;;;;;;;1.67;1.00;;;8.00;93.20;;;;;;6257301;22;21022;-87
2022/02/21 13:43:40;;;;;;;2.67;1.20;;;7.90;93.10;;;;;;6256135;22;20379;-87
2022/02/21 13:46:06;;;;;;;2.87;1.37;;;7.90;93.10;;;;;;6257356;22;20143;-87
2022/02/21 13:48:47;;;;;;;4.23;1.60;;;7.90;92.70;;;;;;6258624;22;20471;-87
2022/02/21 13:51:34;;;;;;;;;;;;;;;;;;;;;
2022/02/21 13:54:26;;;;;;;1.80;0.83;;;7.90;93.60;;;;;;6257322;22;20868;-87
2022/02/21 13:57:12;;;;;;;1.20;0.70;;;8.00;92.50;;;;;;6230168;22;21151;-87
2022/02/21 13:59:46;;;;;;;3.80;1.83;;;7.60;92.70;;;;;;6255826;22;20377;-87
2022/02/21 14:02:29;;;;;;;2.50;1.00;;;7.60;93.40;;;;;;6228512;22;20401;-88
2022/02/21 14:05:13;;;;;;;4.13;0.87;;;7.40;94.00;;;;;;6255107;22;20366;-86
2022/02/21 14:07:54;;;;;;;2.23;0.83;;;7.50;94.40;;;;;;6227002;22;20488;-87
2022/02/21 14:10:24;;;;;;;4.00;0.77;;;7.50;94.50;;;;;;6229073;22;20389;-87
2022/02/21 14:13:11;;;;;;;1.33;0.60;;;7.50;94.90;;;;;;6229302;22;20724;-87
2022/02/21 14:15:38;;;;;;;2.50;1.10;;;7.40;94.30;;;;;;6257218;22;20421;-86
2022/02/21 14:18:07;;;;;;;1.30;0.90;;;7.30;94.90;;;;;;6229581;22;20424;-87
2022/02/21 14:20:33;;;;;;;4.10;0.93;;;7.20;95.20;;;;;;6250992;22;20365;-88
2022/02/21 14:23:05;;;;;;;1.30;0.70;;;7.20;95.70;;;;;;6250505;22;20914;-88
2022/02/21 14:25:31;;;;;;;1.57;0.93;;;7.20;96.10;;;;;;6223880;22;20150;-87